Ames, South Dakota
Current Conditions -  °F | °C
As of 4:22 PM on Monday 22 Dec 2014 (Local Time) from KPIR Reporting Station
Overcast Overcast  
Wind Chill: 19°   Ceiling: 1300
Heat Index: 32°   Visibility: 8mi
Dew Point: 29°   Wind: 22mph
Humidity: 88%   Direction: 320°NW
Pressure: 29.48"   Gusts: 29mph
Location:  44.3693°N, 100.04°W
Report Text: KPIR 222222Z AUTO 32019G25KT 8SM BKN013 BKN020 OVC050 00/M02 A2948 RMK AO2 T00001017
Loading
Personal Weather Stations






























Interactive Weather Map New forecast layout! Learn more

10-Day Weather Forecast

Advertisements
Track Severe Weather on mobile